Time;durP1;ratioP1;P1;durP2;ratioP2;P2;SDS_P1;SDS_P2;PMS_P1;PMS_P2;Temp;Humidity;BMP_temperature;BMP_pressure;BME280_temperature;BME280_humidity;BME280_pressure;Samples;Min_cycle;Max_cycle;Signal;HPM_P1;HPM_P2
2023/10/09 00:01:58;;;;;;;29.48;8.02;;;;;;;;;;2076010;28;20525;-57
2023/10/09 00:03:18;;;;;;;22.67;7.13;;;;;;;;;;2073664;28;20045;-58
2023/10/09 00:04:42;;;;;;;28.35;8.15;;;;;;;;;;2076570;28;20500;-58
2023/10/09 00:06:02;;;;;;;20.15;7.70;;;;;;;;;;2073842;28;20037;-58
2023/10/09 00:07:23;;;;;;;28.30;8.30;;;;;;;;;;2076668;28;20049;-58
2023/10/09 00:08:50;;;;;;;27.05;7.78;;;;;;;;;;2073849;28;20052;-57
2023/10/09 00:10:12;;;;;;;30.20;8.20;;;;;;;;;;2073916;28;20126;-58
2023/10/09 00:11:38;;;;;;;20.17;6.50;;;;;;;;;;2073768;28;20065;-58
2023/10/09 00:12:58;;;;;;;28.98;7.60;;;;;;;;;;2076632;28;20041;-58
2023/10/09 00:14:18;;;;;;;25.70;8.35;;;;;;;;;;2076463;28;20041;-58
2023/10/09 00:15:38;;;;;;;26.05;8.10;;;;;;;;;;2075554;28;20509;-58
2023/10/09 00:17:17;;;;;;;22.17;7.50;;;;;;;;;;2076380;28;20046;-58
2023/10/09 00:18:36;;;;;;;23.60;6.68;;;;;;;;;;2073765;28;20041;-58
2023/10/09 00:19:59;;;;;;;23.40;8.13;;;;;;;;;;2074271;28;20448;-62
2023/10/09 00:21:22;;;;;;;32.13;8.38;;;;;;;;;;2074533;28;20081;-58
2023/10/09 00:22:43;;;;;;;21.20;6.75;;;;;;;;;;2077521;28;20045;-58
2023/10/09 00:24:05;;;;;;;21.20;7.00;;;;;;;;;;2077639;28;20049;-59
2023/10/09 00:25:30;;;;;;;28.00;7.45;;;;;;;;;;2077472;28;20057;-58
2023/10/09 00:26:55;;;;;;;28.25;7.38;;;;;;;;;;2077259;28;20053;-58
2023/10/09 00:28:15;;;;;;;23.35;7.13;;;;;;;;;;2074910;28;20033;-58
2023/10/09 00:29:44;;;;;;;21.25;6.65;;;;;;;;;;2074722;28;20045;-66
2023/10/09 00:31:06;;;;;;;18.55;5.75;;;;;;;;;;2076655;28;20394;-58
2023/10/09 00:32:26;;;;;;;26.75;7.40;;;;;;;;;;2074848;28;20041;-58
2023/10/09 00:33:46;;;;;;;24.83;7.68;;;;;;;;;;2074692;28;20045;-58
2023/10/09 00:36:53;;;;;;;27.83;7.38;;;;;;;;;;2077149;28;20048;-68
2023/10/09 00:38:23;;;;;;;20.67;7.00;;;;;;;;;;2074086;28;20045;-58
2023/10/09 00:39:43;;;;;;;26.70;6.95;;;;;;;;;;2073997;28;20049;-58
2023/10/09 00:41:04;;;;;;;27.05;7.70;;;;;;;;;;2075486;28;20053;-58
2023/10/09 00:42:29;;;;;;;25.83;7.20;;;;;;;;;;2075348;28;20064;-58
2023/10/09 00:43:52;;;;;;;23.60;7.55;;;;;;;;;;2075295;28;20044;-58
2023/10/09 00:45:16;;;;;;;17.88;6.82;;;;;;;;;;2075697;28;20053;-57
2023/10/09 00:46:35;;;;;;;22.27;6.63;;;;;;;;;;2075002;28;20128;-57
2023/10/09 00:47:58;;;;;;;20.95;5.88;;;;;;;;;;2075176;28;20041;-58
2023/10/09 00:49:22;;;;;;;24.45;7.35;;;;;;;;;;2075408;28;20053;-58
2023/10/09 00:50:52;;;;;;;25.02;6.80;;;;;;;;;;2075545;28;20049;-59
2023/10/09 00:52:18;;;;;;;24.52;6.95;;;;;;;;;;2074635;28;20045;-58
2023/10/09 00:53:37;;;;;;;31.10;6.65;;;;;;;;;;2078064;28;20049;-58
2023/10/09 00:55:01;;;;;;;22.55;7.05;;;;;;;;;;2077316;28;20049;-57
2023/10/09 00:56:37;;;;;;;23.33;6.47;;;;;;;;;;2072126;28;20048;-58
2023/10/09 00:57:58;;;;;;;21.63;6.82;;;;;;;;;;2075038;28;20045;-57
2023/10/09 00:59:20;;;;;;;23.40;7.03;;;;;;;;;;2069228;28;20065;-58
2023/10/09 01:00:46;;;;;;;28.17;7.97;;;;;;;;;;2069397;28;20048;-58
2023/10/09 01:02:06;;;;;;;23.30;6.90;;;;;;;;;;2075071;28;20053;-58
2023/10/09 01:03:26;;;;;;;21.55;6.63;;;;;;;;;;2075137;28;20053;-58
2023/10/09 01:04:45;;;;;;;21.50;7.07;;;;;;;;;;2075189;28;20500;-58
2023/10/09 01:07:31;;;;;;;26.30;7.03;;;;;;;;;;2075012;28;20045;-58
2023/10/09 01:09:08;;;;;;;20.30;6.45;;;;;;;;;;2074456;28;20529;-58
2023/10/09 01:10:34;;;;;;;25.98;7.57;;;;;;;;;;2075042;28;20049;-58
2023/10/09 01:12:42;;;;;;;21.20;6.85;;;;;;;;;;2075003;28;20049;-58
2023/10/09 01:13:52;;;;;;;19.33;6.53;;;;;;;;;;2074859;28;20497;-58
2023/10/09 01:15:36;;;;;;;27.98;7.40;;;;;;;;;;2074916;28;20053;-58
2023/10/09 01:16:55;;;;;;;23.55;7.22;;;;;;;;;;2076442;28;20060;-58
2023/10/09 01:18:14;;;;;;;25.08;6.88;;;;;;;;;;2074847;28;20069;-58
2023/10/09 01:19:34;;;;;;;22.17;7.00;;;;;;;;;;2077779;28;20045;-58
2023/10/09 01:20:53;;;;;;;24.83;7.25;;;;;;;;;;2077103;28;20081;-58
2023/10/09 01:22:12;;;;;;;18.77;6.30;;;;;;;;;;2073901;28;20433;-58
2023/10/09 01:23:32;;;;;;;22.95;7.28;;;;;;;;;;2074794;28;20049;-58
2023/10/09 01:24:55;;;;;;;21.00;6.18;;;;;;;;;;2077067;28;20097;-58
2023/10/09 01:26:14;;;;;;;23.00;5.80;;;;;;;;;;2074878;28;20048;-58
2023/10/09 01:27:34;;;;;;;;;;;;;;;;;;2075315;28;20049;-58
2023/10/09 01:28:57;;;;;;;24.10;6.47;;;;;;;;;;2077501;28;19909;-58
2023/10/09 01:30:16;;;;;;;26.35;6.65;;;;;;;;;;2074538;28;20053;-58
2023/10/09 01:31:37;;;;;;;22.30;6.47;;;;;;;;;;2074893;28;20045;-58
2023/10/09 01:32:59;;;;;;;23.45;6.68;;;;;;;;;;2074846;28;20053;-58
2023/10/09 01:34:19;;;;;;;20.25;6.85;;;;;;;;;;2077060;28;20057;-58
2023/10/09 01:35:47;;;;;;;24.85;6.78;;;;;;;;;;2074668;28;20508;-58
2023/10/09 01:37:19;;;;;;;19.75;6.70;;;;;;;;;;2077061;28;20041;-58
2023/10/09 01:38:41;;;;;;;19.92;6.43;;;;;;;;;;2074780;28;20048;-58
2023/10/09 01:41:46;;;;;;;22.67;6.25;;;;;;;;;;2074775;28;20057;-58
2023/10/09 01:43:09;;;;;;;21.70;5.80;;;;;;;;;;2077596;28;20049;-59
2023/10/09 01:44:34;;;;;;;25.92;6.68;;;;;;;;;;2074754;28;20409;-58
2023/10/09 01:45:53;;;;;;;23.02;7.57;;;;;;;;;;2074847;28;20053;-58
2023/10/09 01:47:18;;;;;;;20.95;6.85;;;;;;;;;;2076912;28;20445;-58
2023/10/09 01:48:41;;;;;;;23.60;6.47;;;;;;;;;;2077497;28;20492;-58
2023/10/09 01:50:04;;;;;;;21.88;5.90;;;;;;;;;;2074888;28;20052;-58
2023/10/09 01:51:24;;;;;;;16.45;5.78;;;;;;;;;;2074599;28;20052;-58
2023/10/09 01:52:43;;;;;;;30.23;7.28;;;;;;;;;;2077016;28;20044;-58
2023/10/09 01:54:03;;;;;;;21.48;7.13;;;;;;;;;;2077365;28;20056;-58
2023/10/09 01:55:35;;;;;;;19.75;6.35;;;;;;;;;;2074735;28;20053;-58
2023/10/09 01:56:56;;;;;;;18.50;5.65;;;;;;;;;;2076840;28;20422;-58
2023/10/09 01:59:49;;;;;;;24.20;6.90;;;;;;;;;;2074689;28;20045;-58
2023/10/09 02:01:10;;;;;;;24.57;5.63;;;;;;;;;;2074488;28;20048;-57
2023/10/09 02:02:38;;;;;;;26.15;6.93;;;;;;;;;;2076916;28;20263;-57
2023/10/09 02:04:08;;;;;;;18.60;6.70;;;;;;;;;;2074617;28;20080;-58
2023/10/09 02:05:33;;;;;;;19.20;5.90;;;;;;;;;;2074757;28;20040;-57
2023/10/09 02:06:53;;;;;;;29.00;7.07;;;;;;;;;;2076877;28;20049;-57
2023/10/09 02:08:13;;;;;;;22.20;6.00;;;;;;;;;;2074385;28;20056;-57
2023/10/09 02:09:32;;;;;;;28.13;7.00;;;;;;;;;;2077446;28;20562;-58
2023/10/09 02:10:55;;;;;;;23.13;7.05;;;;;;;;;;2074140;28;20049;-58
2023/10/09 02:12:15;;;;;;;19.77;5.65;;;;;;;;;;2074351;28;20049;-58
2023/10/09 02:13:34;;;;;;;21.88;6.72;;;;;;;;;;2076846;28;20044;-58
2023/10/09 02:14:55;;;;;;;19.25;6.20;;;;;;;;;;2072578;28;20044;-57
2023/10/09 02:16:15;;;;;;;21.63;6.25;;;;;;;;;;2071164;28;20509;-58
2023/10/09 02:17:34;;;;;;;19.77;5.68;;;;;;;;;;2074412;28;20488;-58
2023/10/09 02:18:56;;;;;;;20.20;5.38;;;;;;;;;;2074781;28;20390;-57
2023/10/09 02:20:19;;;;;;;21.40;6.55;;;;;;;;;;2074744;28;20049;-57
2023/10/09 02:21:41;;;;;;;22.15;6.82;;;;;;;;;;2076578;28;20532;-58
2023/10/09 02:23:01;;;;;;;23.95;6.60;;;;;;;;;;2074493;28;20497;-58
2023/10/09 02:24:28;;;;;;;23.25;6.45;;;;;;;;;;2074528;28;20040;-58
2023/10/09 02:25:50;;;;;;;17.27;5.72;;;;;;;;;;2074419;28;20058;-58
2023/10/09 02:27:10;;;;;;;20.30;5.85;;;;;;;;;;2076717;28;20044;-58
2023/10/09 02:28:32;;;;;;;24.33;5.95;;;;;;;;;;2073597;28;20049;-58
2023/10/09 02:29:53;;;;;;;18.75;6.32;;;;;;;;;;2074457;28;20041;-58
2023/10/09 02:31:12;;;;;;;20.80;5.90;;;;;;;;;;2074557;28;20417;-58
2023/10/09 02:32:33;;;;;;;20.77;5.50;;;;;;;;;;2077216;28;20045;-58
2023/10/09 02:33:55;;;;;;;20.20;5.95;;;;;;;;;;2077106;28;20045;-58
2023/10/09 02:37:05;;;;;;;26.08;6.60;;;;;;;;;;2074480;28;20092;-58
2023/10/09 02:38:26;;;;;;;21.58;5.47;;;;;;;;;;2074640;28;20053;-58
2023/10/09 02:39:48;;;;;;;20.70;6.65;;;;;;;;;;2074307;28;20049;-58
2023/10/09 02:42:28;;;;;;;21.98;5.45;;;;;;;;;;2074466;28;20398;-58
2023/10/09 02:43:47;;;;;;;20.48;5.50;;;;;;;;;;2076516;28;20033;-58
2023/10/09 02:45:07;;;;;;;22.30;5.82;;;;;;;;;;2075447;28;20053;-58
2023/10/09 02:46:29;;;;;;;23.83;6.20;;;;;;;;;;2074300;28;20071;-58
2023/10/09 02:47:48;;;;;;;17.90;5.63;;;;;;;;;;2074380;28;20052;-58
2023/10/09 02:49:09;;;;;;;26.77;6.40;;;;;;;;;;2074320;28;20041;-58
2023/10/09 02:50:29;;;;;;;23.35;5.88;;;;;;;;;;2074248;28;20133;-58
2023/10/09 02:51:53;;;;;;;18.40;6.43;;;;;;;;;;2074326;28;20391;-58
2023/10/09 02:53:18;;;;;;;21.45;5.63;;;;;;;;;;2076450;28;20036;-58
2023/10/09 02:54:42;;;;;;;20.70;5.65;;;;;;;;;;2074197;28;20398;-58
2023/10/09 02:56:14;;;;;;;20.15;5.05;;;;;;;;;;2074270;28;20048;-59
2023/10/09 02:57:36;;;;;;;14.70;5.30;;;;;;;;;;2074444;28;20386;-58
2023/10/09 02:59:08;;;;;;;18.92;5.10;;;;;;;;;;2074221;28;20045;-58
2023/10/09 03:00:31;;;;;;;19.92;5.60;;;;;;;;;;2074477;28;20386;-58
2023/10/09 03:01:54;;;;;;;23.52;5.78;;;;;;;;;;2074235;28;20076;-58
2023/10/09 03:03:18;;;;;;;18.50;4.72;;;;;;;;;;2073891;28;20044;-58
2023/10/09 03:04:39;;;;;;;21.50;5.32;;;;;;;;;;2076204;28;20061;-58
2023/10/09 03:05:58;;;;;;;19.48;5.35;;;;;;;;;;2076832;28;20040;-58
2023/10/09 03:07:17;;;;;;;22.83;5.72;;;;;;;;;;2074291;28;20069;-58
2023/10/09 03:08:37;;;;;;;16.75;4.97;;;;;;;;;;2074233;28;20041;-58
2023/10/09 03:09:56;;;;;;;20.42;5.65;;;;;;;;;;2076971;28;20049;-58
2023/10/09 03:11:15;;;;;;;19.10;5.07;;;;;;;;;;2074150;28;20064;-58
2023/10/09 03:12:35;;;;;;;16.17;5.28;;;;;;;;;;2077001;28;20045;-58
2023/10/09 03:13:55;;;;;;;20.05;5.55;;;;;;;;;;2076856;28;20437;-58
2023/10/09 03:15:15;;;;;;;23.95;6.05;;;;;;;;;;2074040;28;20075;-58
2023/10/09 03:16:34;;;;;;;20.25;4.75;;;;;;;;;;2074171;28;20060;-58
2023/10/09 03:17:55;;;;;;;26.70;5.32;;;;;;;;;;2076808;28;20057;-58
2023/10/09 03:19:14;;;;;;;25.83;5.43;;;;;;;;;;2074033;28;20049;-58
2023/10/09 03:20:34;;;;;;;20.00;4.93;;;;;;;;;;2074107;28;20501;-58
2023/10/09 03:21:57;;;;;;;16.48;5.13;;;;;;;;;;2076135;28;20045;-58
2023/10/09 03:23:16;;;;;;;18.73;5.10;;;;;;;;;;2073819;28;20049;-58
2023/10/09 03:24:36;;;;;;;14.45;4.50;;;;;;;;;;2074104;28;20052;-58
2023/10/09 03:25:57;;;;;;;21.50;5.32;;;;;;;;;;2076732;28;20052;-58
2023/10/09 03:27:16;;;;;;;24.35;4.88;;;;;;;;;;2074234;28;20044;-59
2023/10/09 03:28:36;;;;;;;14.30;4.80;;;;;;;;;;2076946;28;20049;-58
2023/10/09 03:29:55;;;;;;;18.88;5.03;;;;;;;;;;2075870;28;20512;-58
2023/10/09 03:31:14;;;;;;;18.35;5.18;;;;;;;;;;2076859;28;20064;-58
2023/10/09 03:32:33;;;;;;;17.00;4.57;;;;;;;;;;2076768;28;20045;-59
2023/10/09 03:33:53;;;;;;;14.32;4.50;;;;;;;;;;2076947;28;20056;-58
2023/10/09 03:35:16;;;;;;;22.20;5.28;;;;;;;;;;2073984;28;20069;-58
2023/10/09 03:36:38;;;;;;;20.52;5.78;;;;;;;;;;2074065;28;20509;-58
2023/10/09 03:38:00;;;;;;;19.00;5.25;;;;;;;;;;2073936;28;20045;-58
2023/10/09 03:40:57;;;;;;;23.02;5.13;;;;;;;;;;2074038;28;20044;-58
2023/10/09 03:42:20;;;;;;;20.42;5.60;;;;;;;;;;2076651;28;20049;-58
2023/10/09 03:43:40;;;;;;;19.98;5.38;;;;;;;;;;2074081;28;20053;-58
2023/10/09 03:45:00;;;;;;;15.88;4.38;;;;;;;;;;2073832;28;20049;-58
2023/10/09 03:46:21;;;;;;;18.42;4.03;;;;;;;;;;2074090;28;20053;-58
2023/10/09 03:47:48;;;;;;;15.80;4.47;;;;;;;;;;2073958;28;20057;-58
2023/10/09 03:49:10;;;;;;;17.80;4.30;;;;;;;;;;2075236;28;20046;-58
2023/10/09 03:50:35;;;;;;;19.73;4.78;;;;;;;;;;2076666;28;20060;-58
2023/10/09 03:51:55;;;;;;;18.13;4.65;;;;;;;;;;2076647;28;20036;-58
2023/10/09 03:53:14;;;;;;;18.38;5.25;;;;;;;;;;2076550;28;20048;-58
2023/10/09 03:54:35;;;;;;;19.80;5.03;;;;;;;;;;2076671;28;20500;-58
2023/10/09 03:55:54;;;;;;;20.13;5.65;;;;;;;;;;2076621;28;20053;-58
2023/10/09 03:57:19;;;;;;;26.35;5.75;;;;;;;;;;2074022;28;20049;-58
2023/10/09 03:58:44;;;;;;;17.17;4.60;;;;;;;;;;2076623;28;20061;-58
2023/10/09 04:00:26;;;;;;;17.20;5.05;;;;;;;;;;2076628;28;20037;-58
2023/10/09 04:01:45;;;;;;;19.25;4.55;;;;;;;;;;2076776;28;20045;-58
2023/10/09 04:03:05;;;;;;;19.45;5.07;;;;;;;;;;2074272;28;20049;-59
2023/10/09 04:04:24;;;;;;;17.08;4.72;;;;;;;;;;2076667;28;20421;-59
2023/10/09 04:05:44;;;;;;;17.38;4.88;;;;;;;;;;2076687;28;20394;-59
2023/10/09 04:07:03;;;;;;;25.75;5.38;;;;;;;;;;2076687;28;20048;-59
2023/10/09 04:08:29;;;;;;;18.77;4.68;;;;;;;;;;2074506;28;20045;-59
2023/10/09 04:09:54;;;;;;;22.67;5.03;;;;;;;;;;2073910;28;20041;-59
2023/10/09 04:11:16;;;;;;;21.75;5.03;;;;;;;;;;2073912;28;20037;-59
2023/10/09 04:12:39;;;;;;;16.52;4.55;;;;;;;;;;2076689;28;20477;-58
2023/10/09 04:14:00;;;;;;;18.92;5.70;;;;;;;;;;2077211;28;20385;-59
2023/10/09 04:15:23;;;;;;;16.83;5.00;;;;;;;;;;2076523;28;20045;-58
2023/10/09 04:17:03;;;;;;;19.65;5.85;;;;;;;;;;2078140;28;20057;-58
2023/10/09 04:18:28;;;;;;;18.95;4.90;;;;;;;;;;2075632;28;20044;-58
2023/10/09 04:20:47;;;;;;;19.35;4.65;;;;;;;;;;2075462;28;20049;-59
2023/10/09 04:21:36;;;;;;;19.63;5.22;;;;;;;;;;2076260;28;20049;-59
2023/10/09 04:23:05;;;;;;;20.55;5.88;;;;;;;;;;2078158;28;20057;-59
2023/10/09 04:24:25;;;;;;;18.13;5.38;;;;;;;;;;2078322;28;20033;-58
2023/10/09 04:25:46;;;;;;;26.90;5.85;;;;;;;;;;2078129;28;20045;-59
2023/10/09 04:27:08;;;;;;;21.20;6.03;;;;;;;;;;2075428;28;20049;-58
2023/10/09 04:28:29;;;;;;;15.40;5.13;;;;;;;;;;2078208;28;20053;-59
2023/10/09 04:29:49;;;;;;;15.43;5.35;;;;;;;;;;2075351;28;20053;-58
2023/10/09 04:31:09;;;;;;;20.05;5.47;;;;;;;;;;2078149;28;20053;-58
2023/10/09 04:32:28;;;;;;;20.77;5.60;;;;;;;;;;2075475;28;20049;-58
2023/10/09 04:34:21;;;;;;;21.67;6.10;;;;;;;;;;2075494;28;20056;-59
2023/10/09 04:35:33;;;;;;;13.77;5.30;;;;;;;;;;2078119;28;20057;-59
2023/10/09 04:38:37;;;;;;;20.27;5.40;;;;;;;;;;2048346;28;20490;-58
2023/10/09 04:40:11;;;;;;;18.05;4.93;;;;;;;;;;2075342;28;20074;-58
2023/10/09 04:41:52;;;;;;;15.48;5.22;;;;;;;;;;2075395;28;20529;-58
2023/10/09 04:43:20;;;;;;;23.90;5.32;;;;;;;;;;2078033;28;20060;-58
2023/10/09 04:44:39;;;;;;;17.17;4.43;;;;;;;;;;2077682;28;20400;-57
2023/10/09 04:46:07;;;;;;;17.92;4.43;;;;;;;;;;2075340;28;20061;-58
2023/10/09 04:47:35;;;;;;;14.77;4.43;;;;;;;;;;2078022;28;20037;-58
2023/10/09 04:48:54;;;;;;;20.45;4.43;;;;;;;;;;2077996;28;20049;-56
2023/10/09 04:52:04;;;;;;;22.55;5.57;;;;;;;;;;2078044;28;20041;-59
2023/10/09 04:53:23;;;;;;;21.58;3.80;;;;;;;;;;2075308;28;20045;-59
2023/10/09 04:56:24;;;;;;;16.90;3.90;;;;;;;;;;2077937;28;20072;-59
2023/10/09 04:59:07;;;;;;;15.75;4.82;;;;;;;;;;2077972;28;20048;-59
2023/10/09 05:01:57;;;;;;;18.80;4.90;;;;;;;;;;2077750;28;20041;-57
2023/10/09 05:03:28;;;;;;;16.27;4.25;;;;;;;;;;2075100;28;20041;-58
2023/10/09 05:04:51;;;;;;;12.90;3.72;;;;;;;;;;2075292;28;20041;-58
2023/10/09 05:06:42;;;;;;;21.77;4.45;;;;;;;;;;2074987;28;20524;-58
2023/10/09 05:08:18;;;;;;;23.83;4.50;;;;;;;;;;2077893;28;20041;-59
2023/10/09 05:09:55;;;;;;;21.88;4.75;;;;;;;;;;2077918;28;20041;-58
2023/10/09 05:11:53;;;;;;;17.42;4.60;;;;;;;;;;2077925;28;20040;-58
2023/10/09 05:12:57;;;;;;;20.35;4.93;;;;;;;;;;2077853;28;20053;-58
2023/10/09 05:14:17;;;;;;;15.23;4.30;;;;;;;;;;2075090;28;20041;-58
2023/10/09 05:15:39;;;;;;;16.38;4.45;;;;;;;;;;2076875;28;20137;-58
2023/10/09 05:17:04;;;;;;;19.48;4.72;;;;;;;;;;2075146;28;20061;-58
2023/10/09 05:18:27;;;;;;;18.05;4.28;;;;;;;;;;2077682;28;20069;-58
2023/10/09 05:20:47;;;;;;;23.13;4.88;;;;;;;;;;2075032;28;20045;-58
2023/10/09 05:22:58;;;;;;;17.25;4.55;;;;;;;;;;2077274;28;20540;-58
2023/10/09 05:24:19;;;;;;;21.67;5.00;;;;;;;;;;2075812;28;20045;-57
2023/10/09 05:25:53;;;;;;;15.13;4.30;;;;;;;;;;2074454;28;20049;-58
2023/10/09 05:27:19;;;;;;;20.85;5.45;;;;;;;;;;2074876;28;20056;-57
2023/10/09 05:28:52;;;;;;;22.15;5.35;;;;;;;;;;2077729;28;20041;-58
2023/10/09 05:30:27;;;;;;;19.35;5.80;;;;;;;;;;2074880;28;20045;-59
2023/10/09 05:31:56;;;;;;;18.13;5.68;;;;;;;;;;2077644;28;20041;-59
2023/10/09 05:33:27;;;;;;;19.55;4.43;;;;;;;;;;2074900;28;20048;-59
2023/10/09 05:37:43;;;;;;;14.65;3.55;;;;;;;;;;2074901;28;20398;-59
2023/10/09 05:40:43;;;;;;;15.98;4.97;;;;;;;;;;2077644;28;20057;-58
2023/10/09 05:42:09;;;;;;;17.33;4.13;;;;;;;;;;2077534;28;20044;-59
2023/10/09 05:47:22;;;;;;;;;;;;;;;;;;2075285;28;20433;-57
2023/10/09 05:49:46;;;;;;;18.77;4.75;;;;;;;;;;2077522;28;20501;-58
2023/10/09 05:54:23;;;;;;;17.50;4.82;;;;;;;;;;2077577;28;20053;-58
2023/10/09 06:04:15;;;;;;;17.73;4.72;;;;;;;;;;2074700;28;20501;-58
2023/10/09 06:06:32;;;;;;;22.08;4.85;;;;;;;;;;2074749;28;20390;-58
2023/10/09 06:07:22;;;;;;;17.92;5.07;;;;;;;;;;2071793;28;20075;-58
2023/10/09 06:10:10;;;;;;;16.65;4.78;;;;;;;;;;2077245;28;20382;-58
2023/10/09 06:12:56;;;;;;;25.10;4.88;;;;;;;;;;2077327;28;20486;-58
2023/10/09 06:14:24;;;;;;;17.38;4.95;;;;;;;;;;2077369;28;20064;-57
2023/10/09 06:17:26;;;;;;;21.25;5.22;;;;;;;;;;2077191;28;20040;-57
2023/10/09 06:18:53;;;;;;;16.40;4.90;;;;;;;;;;2077340;28;20049;-58
2023/10/09 06:23:16;;;;;;;13.10;3.88;;;;;;;;;;2074586;28;20056;-58
2023/10/09 06:24:42;;;;;;;21.10;4.75;;;;;;;;;;2074413;28;20040;-58
2023/10/09 06:26:23;;;;;;;20.75;4.30;;;;;;;;;;2077329;28;20485;-57
2023/10/09 06:29:15;;;;;;;20.80;4.45;;;;;;;;;;2077179;28;20041;-58
2023/10/09 06:30:35;;;;;;;19.77;4.70;;;;;;;;;;2074567;28;20033;-59
2023/10/09 06:31:58;;;;;;;13.63;4.65;;;;;;;;;;2077172;28;20509;-58
2023/10/09 06:33:29;;;;;;;11.55;4.10;;;;;;;;;;2077157;28;20044;-58
2023/10/09 06:34:52;;;;;;;20.10;5.53;;;;;;;;;;2074465;28;20045;-58
2023/10/09 06:36:17;;;;;;;19.00;4.53;;;;;;;;;;2074393;28;20474;-58
2023/10/09 06:37:38;;;;;;;15.05;4.55;;;;;;;;;;2076151;28;20065;-58
2023/10/09 06:42:31;;;;;;;18.45;4.57;;;;;;;;;;2077119;28;20064;-58
2023/10/09 06:43:53;;;;;;;18.52;4.00;;;;;;;;;;2074506;28;20049;-58
2023/10/09 06:46:43;;;;;;;16.10;3.92;;;;;;;;;;2077058;28;20048;-58
2023/10/09 06:48:40;;;;;;;19.98;4.95;;;;;;;;;;2074374;28;20493;-59
2023/10/09 06:50:24;;;;;;;19.02;3.95;;;;;;;;;;2074430;28;20497;-58
2023/10/09 06:54:27;;;;;;;21.48;5.00;;;;;;;;;;2074439;28;20053;-59
2023/10/09 06:55:48;;;;;;;24.40;4.95;;;;;;;;;;2077102;28;20041;-58
2023/10/09 06:57:14;;;;;;;19.13;5.22;;;;;;;;;;2076962;28;20414;-58
2023/10/09 06:58:41;;;;;;;16.75;4.80;;;;;;;;;;2074250;28;20037;-58
2023/10/09 07:03:05;;;;;;;18.55;4.93;;;;;;;;;;2074067;28;20513;-58
2023/10/09 07:06:04;;;;;;;17.63;4.53;;;;;;;;;;2076983;28;20105;-59
2023/10/09 07:07:24;;;;;;;19.17;4.47;;;;;;;;;;2074158;28;20032;-58
2023/10/09 07:08:57;;;;;;;22.95;4.50;;;;;;;;;;2074225;28;20048;-58
2023/10/09 07:10:29;;;;;;;22.65;4.70;;;;;;;;;;2076858;28;20037;-58
2023/10/09 07:13:08;;;;;;;22.92;4.70;;;;;;;;;;2076830;28;20053;-59
2023/10/09 07:18:54;;;;;;;20.23;4.00;;;;;;;;;;2076810;28;20057;-58
2023/10/09 07:20:14;;;;;;;21.45;4.97;;;;;;;;;;2076917;28;20045;-57
2023/10/09 07:21:35;;;;;;;21.70;4.40;;;;;;;;;;2074205;28;20057;-58
2023/10/09 07:22:56;;;;;;;25.00;5.20;;;;;;;;;;2074028;28;20068;-59
2023/10/09 07:24:17;;;;;;;18.13;4.85;;;;;;;;;;2076635;28;20060;-58
2023/10/09 07:25:54;;;;;;;18.83;4.20;;;;;;;;;;2076647;28;20496;-58
2023/10/09 07:27:14;;;;;;;15.17;3.77;;;;;;;;;;2073991;28;20104;-58
2023/10/09 07:28:36;;;;;;;15.10;3.75;;;;;;;;;;2074089;28;20270;-57
2023/10/09 07:29:56;;;;;;;15.15;4.60;;;;;;;;;;2076834;28;20065;-58
2023/10/09 07:31:26;;;;;;;25.90;4.93;;;;;;;;;;2076363;28;20113;-58
2023/10/09 07:32:47;;;;;;;14.80;4.32;;;;;;;;;;2076505;28;20045;-58
2023/10/09 07:34:30;;;;;;;11.77;3.55;;;;;;;;;;2076730;28;20045;-58
2023/10/09 07:35:46;;;;;;;13.73;3.63;;;;;;;;;;2076851;28;20401;-58
2023/10/09 07:37:06;;;;;;;23.80;4.72;;;;;;;;;;2075287;28;20045;-58
2023/10/09 07:38:28;;;;;;;23.13;4.45;;;;;;;;;;2076695;28;20041;-58
2023/10/09 07:39:56;;;;;;;31.50;5.13;;;;;;;;;;2076768;28;20048;-58
2023/10/09 07:44:18;;;;;;;20.35;4.65;;;;;;;;;;2073877;28;20044;-58
2023/10/09 07:48:48;;;;;;;23.73;4.28;;;;;;;;;;2076449;28;20057;-58
2023/10/09 07:50:11;;;;;;;21.25;4.90;;;;;;;;;;2076618;28;20049;-58
2023/10/09 07:51:30;;;;;;;29.95;4.20;;;;;;;;;;2076587;28;20045;-58
2023/10/09 07:52:49;;;;;;;30.25;5.38;;;;;;;;;;2076557;28;20057;-58
2023/10/09 07:54:09;;;;;;;21.80;4.38;;;;;;;;;;2076615;28;20041;-58
2023/10/09 07:55:39;;;;;;;29.90;5.35;;;;;;;;;;2073824;28;20064;-58
2023/10/09 07:57:08;;;;;;;28.80;4.90;;;;;;;;;;2073895;28;20033;-58
2023/10/09 07:58:27;;;;;;;23.33;5.28;;;;;;;;;;2076621;28;20152;-58
2023/10/09 08:00:00;;;;;;;28.77;4.78;;;;;;;;;;2075952;28;20037;-58
2023/10/09 08:01:23;;;;;;;30.65;4.75;;;;;;;;;;2076400;28;20044;-58
2023/10/09 08:02:42;;;;;;;22.58;4.40;;;;;;;;;;2076404;28;20049;-58
2023/10/09 08:04:05;;;;;;;31.05;5.35;;;;;;;;;;2073570;28;20041;-58
2023/10/09 08:05:33;;;;;;;30.17;4.68;;;;;;;;;;2076622;28;20041;-58
2023/10/09 08:06:53;;;;;;;19.93;4.90;;;;;;;;;;2073994;28;20049;-58
2023/10/09 08:10:58;;;;;;;22.03;4.60;;;;;;;;;;2076545;28;20505;-58
2023/10/09 08:11:43;;;;;;;27.15;4.53;;;;;;;;;;2075027;28;20769;-58
2023/10/09 08:13:49;;;;;;;27.77;4.13;;;;;;;;;;2076486;28;20060;-58
2023/10/09 08:14:45;;;;;;;18.25;3.85;;;;;;;;;;2073857;28;20060;-58
2023/10/09 08:16:17;;;;;;;21.98;4.82;;;;;;;;;;2073915;28;20061;-57
2023/10/09 08:17:37;;;;;;;27.02;5.85;;;;;;;;;;2073795;28;20057;-58
2023/10/09 08:18:57;;;;;;;23.27;4.88;;;;;;;;;;2076453;28;20397;-58
2023/10/09 08:20:17;;;;;;;21.77;5.53;;;;;;;;;;2076444;28;20037;-58
2023/10/09 08:22:07;;;;;;;33.78;8.40;;;;;;;;;;2073788;28;20113;-57
2023/10/09 08:23:28;;;;;;;35.20;22.98;;;;;;;;;;2076394;28;20351;-59
2023/10/09 08:24:57;;;;;;;44.95;18.27;;;;;;;;;;2073730;28;20486;-57
2023/10/09 08:26:28;;;;;;;49.78;35.38;;;;;;;;;;2073666;28;20046;-59
2023/10/09 08:27:54;;;;;;;58.78;45.50;;;;;;;;;;2076428;28;20478;-59
2023/10/09 08:29:17;;;;;;;44.58;30.58;;;;;;;;;;2073612;28;20042;-58
2023/10/09 08:32:38;;;;;;;54.10;39.28;;;;;;;;;;2070153;28;20042;-58
2023/10/09 08:33:57;;;;;;;240.20;199.27;;;;;;;;;;2073621;28;20474;-57
2023/10/09 08:35:29;;;;;;;44.53;29.73;;;;;;;;;;2076298;28;20377;-59
2023/10/09 08:36:52;;;;;;;48.72;29.58;;;;;;;;;;2073689;28;20045;-58
2023/10/09 08:38:13;;;;;;;51.58;36.92;;;;;;;;;;2073695;28;20045;-58
2023/10/09 08:39:36;;;;;;;64.55;46.40;;;;;;;;;;2073829;28;20069;-58
2023/10/09 08:40:58;;;;;;;152.93;90.25;;;;;;;;;;2073745;28;20037;-59
2023/10/09 08:42:18;;;;;;;316.45;203.27;;;;;;;;;;2073257;28;20049;-58
2023/10/09 08:43:39;;;;;;;90.20;52.75;;;;;;;;;;2070398;28;20046;-58
2023/10/09 08:45:03;;;;;;;140.85;75.38;;;;;;;;;;2070255;28;20072;-58
2023/10/09 08:46:27;;;;;;;144.02;64.88;;;;;;;;;;2073339;28;20066;-60
2023/10/09 08:47:49;;;;;;;193.20;90.65;;;;;;;;;;2073570;28;20022;-58
2023/10/09 08:49:10;;;;;;;165.00;79.28;;;;;;;;;;2073093;28;20042;-58
2023/10/09 08:50:31;;;;;;;142.98;60.25;;;;;;;;;;2070433;28;20470;-58
2023/10/09 08:51:52;;;;;;;122.20;47.58;;;;;;;;;;2070210;28;20030;-58
2023/10/09 08:53:12;;;;;;;91.03;38.38;;;;;;;;;;2074375;28;20034;-58
2023/10/09 08:54:31;;;;;;;71.90;34.63;;;;;;;;;;2073667;28;20038;-58
2023/10/09 08:55:52;;;;;;;60.17;24.98;;;;;;;;;;2073598;28;20034;-58
2023/10/09 08:57:11;;;;;;;40.53;15.98;;;;;;;;;;2076363;28;20406;-58
2023/10/09 08:58:34;;;;;;;42.28;15.88;;;;;;;;;;2076303;28;20034;-58
2023/10/09 08:59:53;;;;;;;35.50;8.23;;;;;;;;;;2073655;28;20030;-58
2023/10/09 09:01:17;;;;;;;35.40;12.48;;;;;;;;;;2074728;28;20090;-58
2023/10/09 09:02:36;;;;;;;30.83;7.95;;;;;;;;;;2075134;28;20034;-58
2023/10/09 09:03:55;;;;;;;24.08;6.25;;;;;;;;;;2078028;28;20053;-58
2023/10/09 09:04:56;;;;;;;27.52;8.48;;;;;;;;;;2074998;28;20033;-59
2023/10/09 09:06:15;;;;;;;40.55;13.80;;;;;;;;;;2075048;28;20053;-58
2023/10/09 09:07:39;;;;;;;31.08;9.13;;;;;;;;;;2077880;28;20425;-58
2023/10/09 09:08:59;;;;;;;34.05;14.18;;;;;;;;;;2077217;28;20049;-58
2023/10/09 09:10:21;;;;;;;24.77;7.05;;;;;;;;;;2074147;28;20041;-58
2023/10/09 09:11:48;;;;;;;25.05;6.47;;;;;;;;;;2074056;28;20556;-59
2023/10/09 09:13:00;;;;;;;28.65;9.40;;;;;;;;;;2075129;28;20037;-58
2023/10/09 09:14:12;;;;;;;25.45;7.90;;;;;;;;;;2075033;28;20030;-59
2023/10/09 09:15:18;;;;;;;29.23;6.18;;;;;;;;;;2075283;28;20468;-59
2023/10/09 09:16:22;;;;;;;24.48;5.00;;;;;;;;;;2074368;28;20065;-58
2023/10/09 09:17:27;;;;;;;25.83;5.32;;;;;;;;;;2074567;28;20054;-57
2023/10/09 09:18:36;;;;;;;17.50;4.20;;;;;;;;;;2074427;28;20486;-57
2023/10/09 09:19:38;;;;;;;31.20;5.57;;;;;;;;;;2074041;28;20041;-58
2023/10/09 09:20:45;;;;;;;31.25;6.20;;;;;;;;;;2074680;28;20041;-58
2023/10/09 09:21:54;;;;;;;29.58;6.10;;;;;;;;;;2074784;28;20041;-58
2023/10/09 09:22:57;;;;;;;26.08;5.05;;;;;;;;;;2074657;28;20068;-58
2023/10/09 09:24:01;;;;;;;26.30;4.80;;;;;;;;;;2074429;28;20038;-57
2023/10/09 09:25:09;;;;;;;29.65;5.18;;;;;;;;;;2074513;28;20056;-58
2023/10/09 09:26:11;;;;;;;31.70;5.57;;;;;;;;;;2075249;28;20033;-58
2023/10/09 09:27:12;;;;;;;35.00;5.55;;;;;;;;;;2073841;28;20045;-58
2023/10/09 09:28:19;;;;;;;22.08;5.43;;;;;;;;;;2065678;28;20046;-58
2023/10/09 09:29:23;;;;;;;22.50;5.78;;;;;;;;;;2073586;28;20054;-58